TAP355 EGCC-LPPT
Flight info
| Callsign | TAP355 |
|---|---|
| Flight time | 2h 24m |
| Altitude | 38000 |
| Route | ASMIM DCT NOKIN P17 BEPHE DCT OSSEP DCT ELNIF DCT ZESPE DCT DAWLY DCT BHD DCT ANNET DCT EKVEB DCT KORUL DCT ASPOR DCT ABLEG DCT XAMAX |
| Aircraft | B742/H-A1B3B4B5/S |
Departure
| Time | 2026-05-06 21:32 |
|---|---|
| Airport | Manchester Airport (EGCC) |
Arrival
| Time | 2026-05-06 23:56 |
|---|---|
| Airport | Lisbon Humberto Delgado Airport (LPPT) |
| Time | Latitude | Longitude | Altitude | Speed | Heading |
|---|---|---|---|---|---|
| 2026-05-06 20:43 | 53.35839 | -2.27393 | 263 ft | 0 kts | 287° |
| 2026-05-06 21:17 | 53.35838 | -2.27393 | 263 ft | 0 kts | 287° |
| 2026-05-06 21:18 | 53.35837 | -2.27385 | 263 ft | 2 kts | 277° |
| 2026-05-06 21:18 | 53.35839 | -2.27360 | 263 ft | 2 kts | 250° |
| 2026-05-06 21:18 | 53.35846 | -2.27338 | 263 ft | 2 kts | 228° |
| 2026-05-06 21:19 | 53.35858 | -2.27322 | 263 ft | 2 kts | 205° |
| 2026-05-06 21:19 | 53.35872 | -2.27316 | 263 ft | 2 kts | 183° |
| 2026-05-06 21:19 | 53.35887 | -2.27318 | 263 ft | 2 kts | 174° |
| 2026-05-06 21:19 | 53.35898 | -2.27319 | 263 ft | 0 kts | 176° |
| 2026-05-06 21:20 | 53.35899 | -2.27319 | 263 ft | 0 kts | 176° |
| 2026-05-06 21:23 | 53.35897 | -2.27319 | 263 ft | 1 kts | 176° |
| 2026-05-06 21:24 | 53.35865 | -2.27316 | 263 ft | 7 kts | 178° |
| 2026-05-06 21:24 | 53.35799 | -2.27327 | 263 ft | 10 kts | 205° |
| 2026-05-06 21:24 | 53.35744 | -2.27410 | 263 ft | 11 kts | 230° |
| 2026-05-06 21:24 | 53.35693 | -2.27516 | 263 ft | 12 kts | 231° |
| 2026-05-06 21:25 | 53.35635 | -2.27628 | 263 ft | 13 kts | 225° |
| 2026-05-06 21:25 | 53.35567 | -2.27740 | 263 ft | 14 kts | 225° |
| 2026-05-06 21:25 | 53.35494 | -2.27860 | 263 ft | 15 kts | 224° |
| 2026-05-06 21:25 | 53.35415 | -2.27988 | 263 ft | 16 kts | 224° |
| 2026-05-06 21:26 | 53.35331 | -2.28122 | 263 ft | 17 kts | 223° |
| 2026-05-06 21:26 | 53.35248 | -2.28266 | 263 ft | 17 kts | 231° |
| 2026-05-06 21:26 | 53.35172 | -2.28423 | 263 ft | 17 kts | 231° |
| 2026-05-06 21:26 | 53.35099 | -2.28574 | 263 ft | 16 kts | 232° |
| 2026-05-06 21:27 | 53.35028 | -2.28714 | 263 ft | 15 kts | 227° |
| 2026-05-06 21:27 | 53.34957 | -2.28839 | 263 ft | 14 kts | 226° |
| 2026-05-06 21:27 | 53.34890 | -2.28957 | 263 ft | 13 kts | 226° |
| 2026-05-06 21:27 | 53.34825 | -2.29077 | 263 ft | 14 kts | 229° |
| 2026-05-06 21:28 | 53.34762 | -2.29202 | 263 ft | 14 kts | 232° |
| 2026-05-06 21:28 | 53.34695 | -2.29313 | 263 ft | 13 kts | 211° |
| 2026-05-06 21:28 | 53.34613 | -2.29345 | 263 ft | 11 kts | 172° |
| 2026-05-06 21:28 | 53.34547 | -2.29288 | 263 ft | 9 kts | 129° |
| 2026-05-06 21:29 | 53.34552 | -2.29193 | 263 ft | 8 kts | 51° |
| 2026-05-06 21:29 | 53.34563 | -2.29171 | 263 ft | 0 kts | 50° |
| 2026-05-06 21:31 | 53.34564 | -2.29170 | 263 ft | 3 kts | 50° |
| 2026-05-06 21:31 | 53.34732 | -2.28826 | 263 ft | 74 kts | 52° |
| 2026-05-06 21:31 | 53.35200 | -2.27852 | 264 ft | 139 kts | 51° |
| 2026-05-06 21:31 | 53.35903 | -2.26442 | 519 ft | 168 kts | 51° |
| 2026-05-06 21:32 | 53.36666 | -2.24994 | 1218 ft | 165 kts | 51° |
| 2026-05-06 21:32 | 53.38266 | -2.22326 | 2317 ft | 162 kts | 49° |
| 2026-05-06 21:32 | 53.39132 | -2.21011 | 2529 ft | 173 kts | 36° |
| 2026-05-06 21:33 | 53.40272 | -2.20360 | 2837 ft | 181 kts | 4° |
| 2026-05-06 21:33 | 53.41507 | -2.20898 | 3126 ft | 188 kts | 329° |
| 2026-05-06 21:33 | 53.42425 | -2.22413 | 3494 ft | 188 kts | 304° |
| 2026-05-06 21:33 | 53.43061 | -2.24307 | 3899 ft | 187 kts | 297° |
| 2026-05-06 21:34 | 53.43660 | -2.26324 | 4089 ft | 199 kts | 295° |
| 2026-05-06 21:34 | 53.44217 | -2.28451 | 4481 ft | 198 kts | 289° |
| 2026-05-06 21:34 | 53.44663 | -2.30636 | 4848 ft | 201 kts | 288° |
| 2026-05-06 21:34 | 53.45139 | -2.32931 | 4953 ft | 219 kts | 289° |
| 2026-05-06 21:35 | 53.45683 | -2.35472 | 5006 ft | 244 kts | 290° |
| 2026-05-06 21:35 | 53.46285 | -2.38247 | 4980 ft | 257 kts | 289° |
| 2026-05-06 21:35 | 53.46697 | -2.41135 | 4982 ft | 255 kts | 275° |
| 2026-05-06 21:35 | 53.46723 | -2.44100 | 4979 ft | 254 kts | 266° |
| 2026-05-06 21:36 | 53.46537 | -2.47035 | 4981 ft | 253 kts | 262° |
| 2026-05-06 21:36 | 53.46266 | -2.49956 | 4982 ft | 253 kts | 260° |
| 2026-05-06 21:36 | 53.45965 | -2.52852 | 4986 ft | 253 kts | 259° |
| 2026-05-06 21:36 | 53.45652 | -2.55758 | 4983 ft | 253 kts | 259° |
| 2026-05-06 21:37 | 53.45334 | -2.58664 | 4984 ft | 253 kts | 259° |
| 2026-05-06 21:37 | 53.44996 | -2.61560 | 4978 ft | 253 kts | 254° |
| 2026-05-06 21:37 | 53.44132 | -2.64079 | 5016 ft | 252 kts | 225° |
| 2026-05-06 21:37 | 53.42759 | -2.65845 | 5386 ft | 250 kts | 211° |
| 2026-05-06 21:38 | 53.41209 | -2.67201 | 5782 ft | 255 kts | 205° |
| 2026-05-06 21:38 | 53.39574 | -2.68372 | 6181 ft | 256 kts | 202° |
| 2026-05-06 21:38 | 53.37917 | -2.69460 | 6552 ft | 258 kts | 202° |
| 2026-05-06 21:38 | 53.36237 | -2.70529 | 6972 ft | 259 kts | 201° |
| 2026-05-06 21:39 | 53.34557 | -2.71584 | 7523 ft | 259 kts | 201° |
| 2026-05-06 21:39 | 53.32851 | -2.72653 | 8055 ft | 266 kts | 201° |
| 2026-05-06 21:39 | 53.31110 | -2.73740 | 8579 ft | 270 kts | 201° |
| 2026-05-06 21:39 | 53.29345 | -2.74841 | 9049 ft | 274 kts | 201° |
| 2026-05-06 21:40 | 53.27551 | -2.75959 | 9430 ft | 275 kts | 201° |
| 2026-05-06 21:40 | 53.25760 | -2.77073 | 9791 ft | 276 kts | 201° |
| 2026-05-06 21:40 | 53.23940 | -2.78205 | 9973 ft | 281 kts | 201° |
| 2026-05-06 21:40 | 53.22092 | -2.79354 | 10020 ft | 293 kts | 201° |
| 2026-05-06 21:41 | 53.20114 | -2.80585 | 10140 ft | 315 kts | 201° |
| 2026-05-06 21:41 | 53.17993 | -2.81901 | 10385 ft | 335 kts | 201° |
| 2026-05-06 21:41 | 53.15762 | -2.83283 | 10720 ft | 350 kts | 201° |
| 2026-05-06 21:41 | 53.13461 | -2.84706 | 11106 ft | 354 kts | 201° |
| 2026-05-06 21:42 | 53.11152 | -2.86130 | 11491 ft | 354 kts | 201° |
| 2026-05-06 21:42 | 53.08771 | -2.87227 | 11875 ft | 358 kts | 190° |
| 2026-05-06 21:42 | 53.06289 | -2.87485 | 12368 ft | 361 kts | 180° |
| 2026-05-06 21:42 | 53.03777 | -2.87166 | 12876 ft | 366 kts | 174° |
| 2026-05-06 21:43 | 53.01258 | -2.86577 | 13381 ft | 368 kts | 172° |
| 2026-05-06 21:43 | 52.98718 | -2.85891 | 13848 ft | 372 kts | 172° |
| 2026-05-06 21:43 | 52.96168 | -2.85185 | 14311 ft | 374 kts | 172° |
| 2026-05-06 21:43 | 52.93604 | -2.84480 | 14844 ft | 376 kts | 172° |
| 2026-05-06 21:44 | 52.91015 | -2.83775 | 15343 ft | 379 kts | 172° |
| 2026-05-06 21:44 | 52.88408 | -2.83069 | 15814 ft | 382 kts | 172° |
| 2026-05-06 21:44 | 52.85768 | -2.82357 | 16294 ft | 385 kts | 172° |
| 2026-05-06 21:44 | 52.83131 | -2.81646 | 16777 ft | 387 kts | 172° |
| 2026-05-06 21:45 | 52.80474 | -2.80932 | 17269 ft | 389 kts | 172° |
| 2026-05-06 21:45 | 52.77793 | -2.80212 | 17758 ft | 392 kts | 172° |
| 2026-05-06 21:45 | 52.75101 | -2.79490 | 18247 ft | 394 kts | 172° |
| 2026-05-06 21:45 | 52.72389 | -2.78763 | 18733 ft | 397 kts | 172° |
| 2026-05-06 21:46 | 52.69654 | -2.78031 | 19220 ft | 400 kts | 172° |
| 2026-05-06 21:46 | 52.66899 | -2.77294 | 19710 ft | 404 kts | 172° |
| 2026-05-06 21:46 | 52.64117 | -2.76588 | 20194 ft | 407 kts | 174° |
| 2026-05-06 21:46 | 52.61291 | -2.76200 | 20683 ft | 410 kts | 179° |
| 2026-05-06 21:47 | 52.58444 | -2.76144 | 21162 ft | 412 kts | 182° |
| 2026-05-06 21:47 | 52.55568 | -2.76281 | 21653 ft | 415 kts | 183° |
| 2026-05-06 21:47 | 52.52677 | -2.76505 | 22139 ft | 418 kts | 184° |
| 2026-05-06 21:47 | 52.49765 | -2.76760 | 22622 ft | 422 kts | 184° |
| 2026-05-06 21:48 | 52.46831 | -2.77022 | 23110 ft | 425 kts | 184° |
| 2026-05-06 21:48 | 52.43878 | -2.77284 | 23593 ft | 428 kts | 184° |
| 2026-05-06 21:48 | 52.40907 | -2.77544 | 24082 ft | 431 kts | 184° |
| 2026-05-06 21:48 | 52.37908 | -2.77804 | 24585 ft | 434 kts | 184° |
| 2026-05-06 21:49 | 52.34897 | -2.78065 | 25085 ft | 437 kts | 184° |
| 2026-05-06 21:49 | 52.31859 | -2.78327 | 25593 ft | 439 kts | 184° |
| 2026-05-06 21:49 | 52.28807 | -2.78589 | 26067 ft | 443 kts | 184° |
| 2026-05-06 21:49 | 52.25725 | -2.78854 | 26543 ft | 446 kts | 184° |
| 2026-05-06 21:50 | 52.22625 | -2.79120 | 27013 ft | 449 kts | 184° |
| 2026-05-06 21:50 | 52.19508 | -2.79386 | 27486 ft | 451 kts | 183° |
| 2026-05-06 21:50 | 52.16373 | -2.79654 | 27959 ft | 453 kts | 183° |
| 2026-05-06 21:50 | 52.13230 | -2.79922 | 28435 ft | 454 kts | 183° |
| 2026-05-06 21:51 | 52.10076 | -2.80191 | 28903 ft | 456 kts | 183° |
| 2026-05-06 21:51 | 52.06903 | -2.80461 | 29309 ft | 458 kts | 183° |
| 2026-05-06 21:51 | 52.03721 | -2.80731 | 29724 ft | 461 kts | 183° |
| 2026-05-06 21:51 | 52.00522 | -2.81002 | 30127 ft | 463 kts | 183° |
| 2026-05-06 21:52 | 51.97304 | -2.81274 | 30541 ft | 464 kts | 183° |
| 2026-05-06 21:52 | 51.94087 | -2.81546 | 30951 ft | 466 kts | 183° |
| 2026-05-06 21:52 | 51.90854 | -2.81818 | 31331 ft | 467 kts | 183° |
| 2026-05-06 21:52 | 51.87608 | -2.82164 | 31709 ft | 468 kts | 185° |
| 2026-05-06 21:53 | 51.84369 | -2.82663 | 32091 ft | 469 kts | 186° |
| 2026-05-06 21:53 | 51.81137 | -2.83260 | 32470 ft | 469 kts | 187° |
| 2026-05-06 21:53 | 51.77897 | -2.83914 | 32850 ft | 470 kts | 187° |
| 2026-05-06 21:53 | 51.74665 | -2.84591 | 33229 ft | 470 kts | 188° |
| 2026-05-06 21:54 | 51.71423 | -2.85282 | 33605 ft | 470 kts | 188° |
| 2026-05-06 21:54 | 51.68192 | -2.85973 | 33978 ft | 470 kts | 188° |
| 2026-05-06 21:54 | 51.64963 | -2.86663 | 34353 ft | 469 kts | 188° |
| 2026-05-06 21:54 | 51.61741 | -2.87351 | 34727 ft | 468 kts | 188° |
| 2026-05-06 21:55 | 51.58530 | -2.88095 | 35033 ft | 465 kts | 192° |
| 2026-05-06 21:55 | 51.55396 | -2.89252 | 35281 ft | 463 kts | 197° |
| 2026-05-06 21:55 | 51.52326 | -2.90730 | 35490 ft | 461 kts | 199° |
| 2026-05-06 21:55 | 51.49285 | -2.92391 | 35605 ft | 464 kts | 201° |
| 2026-05-06 21:56 | 51.46252 | -2.94148 | 35727 ft | 465 kts | 201° |
| 2026-05-06 21:56 | 51.43222 | -2.95948 | 35848 ft | 467 kts | 202° |
| 2026-05-06 21:56 | 51.40179 | -2.97771 | 35970 ft | 469 kts | 202° |
| 2026-05-06 21:56 | 51.37122 | -2.99604 | 36087 ft | 471 kts | 202° |
| 2026-05-06 21:57 | 51.34061 | -3.01436 | 36205 ft | 472 kts | 202° |
| 2026-05-06 21:57 | 51.30979 | -3.03277 | 36365 ft | 474 kts | 202° |
| 2026-05-06 21:57 | 51.27889 | -3.05119 | 36528 ft | 475 kts | 202° |
| 2026-05-06 21:57 | 51.24793 | -3.06961 | 36705 ft | 476 kts | 202° |
| 2026-05-06 21:58 | 51.21695 | -3.08802 | 36885 ft | 477 kts | 202° |
| 2026-05-06 21:58 | 51.18589 | -3.10643 | 37064 ft | 478 kts | 202° |
| 2026-05-06 21:58 | 51.15482 | -3.12483 | 37247 ft | 478 kts | 201° |
| 2026-05-06 21:58 | 51.12357 | -3.14331 | 37422 ft | 479 kts | 201° |
| 2026-05-06 21:59 | 51.09242 | -3.16170 | 37599 ft | 479 kts | 201° |
| 2026-05-06 21:59 | 51.06130 | -3.18005 | 37776 ft | 479 kts | 201° |
| 2026-05-06 21:59 | 51.03017 | -3.19837 | 37955 ft | 479 kts | 201° |
| 2026-05-06 21:59 | 50.99903 | -3.21668 | 38138 ft | 479 kts | 201° |
| 2026-05-06 22:00 | 50.96779 | -3.23501 | 38316 ft | 478 kts | 201° |
| 2026-05-06 22:00 | 50.93664 | -3.25328 | 38493 ft | 478 kts | 201° |
| 2026-05-06 22:00 | 50.90555 | -3.27147 | 38676 ft | 477 kts | 201° |
| 2026-05-06 22:00 | 50.87448 | -3.28963 | 38853 ft | 476 kts | 201° |
| 2026-05-06 22:01 | 50.84341 | -3.30777 | 38973 ft | 477 kts | 201° |
| 2026-05-06 22:01 | 50.81229 | -3.32591 | 38998 ft | 480 kts | 201° |
| 2026-05-06 22:01 | 50.74923 | -3.36259 | 39008 ft | 487 kts | 201° |
| 2026-05-06 22:02 | 50.68535 | -3.39964 | 39011 ft | 493 kts | 201° |
| 2026-05-06 22:02 | 50.62123 | -3.43671 | 39008 ft | 491 kts | 201° |
| 2026-05-06 22:03 | 50.55546 | -3.46377 | 39009 ft | 490 kts | 191° |
| 2026-05-06 22:03 | 50.48799 | -3.47876 | 39011 ft | 492 kts | 188° |
| 2026-05-06 22:04 | 50.42027 | -3.49275 | 39010 ft | 491 kts | 194° |
| 2026-05-06 22:04 | 50.35531 | -3.52477 | 39008 ft | 489 kts | 202° |
| 2026-05-06 22:05 | 50.29274 | -3.56591 | 39008 ft | 489 kts | 205° |
| 2026-05-06 22:05 | 50.23063 | -3.60883 | 39006 ft | 489 kts | 205° |
| 2026-05-06 22:06 | 50.16831 | -3.65177 | 39007 ft | 491 kts | 204° |
| 2026-05-06 22:06 | 50.10602 | -3.69438 | 39007 ft | 490 kts | 204° |
| 2026-05-06 22:07 | 50.04381 | -3.73675 | 39008 ft | 488 kts | 204° |
| 2026-05-06 22:07 | 49.98177 | -3.77889 | 39007 ft | 488 kts | 204° |
| 2026-05-06 22:08 | 49.91971 | -3.82090 | 39007 ft | 487 kts | 204° |
| 2026-05-06 22:08 | 49.85756 | -3.86287 | 39009 ft | 488 kts | 204° |
| 2026-05-06 22:09 | 49.79525 | -3.90483 | 39006 ft | 490 kts | 204° |
| 2026-05-06 22:09 | 49.73280 | -3.94676 | 39009 ft | 490 kts | 204° |
| 2026-05-06 22:10 | 49.67028 | -3.98845 | 39006 ft | 490 kts | 204° |
| 2026-05-06 22:10 | 49.60749 | -4.02910 | 39007 ft | 488 kts | 203° |
| 2026-05-06 22:11 | 49.54494 | -4.06893 | 39006 ft | 487 kts | 203° |
| 2026-05-06 22:11 | 49.48232 | -4.10858 | 39006 ft | 488 kts | 203° |
| 2026-05-06 22:12 | 49.41946 | -4.14827 | 39006 ft | 489 kts | 203° |
| 2026-05-06 22:12 | 49.35646 | -4.18793 | 39006 ft | 490 kts | 203° |
| 2026-05-06 22:13 | 49.29353 | -4.22746 | 39007 ft | 490 kts | 203° |
| 2026-05-06 22:13 | 49.23058 | -4.26688 | 39007 ft | 489 kts | 203° |
| 2026-05-06 22:14 | 49.16774 | -4.30613 | 39007 ft | 488 kts | 203° |
| 2026-05-06 22:14 | 49.10506 | -4.34516 | 39007 ft | 489 kts | 203° |
| 2026-05-06 22:15 | 49.04208 | -4.38428 | 39007 ft | 488 kts | 203° |
| 2026-05-06 22:15 | 48.97929 | -4.42316 | 39006 ft | 488 kts | 203° |
| 2026-05-06 22:16 | 48.91646 | -4.46198 | 39005 ft | 489 kts | 203° |
| 2026-05-06 22:16 | 48.85343 | -4.50081 | 39005 ft | 489 kts | 203° |
| 2026-05-06 22:17 | 48.79043 | -4.53952 | 39004 ft | 489 kts | 203° |
| 2026-05-06 22:17 | 48.72751 | -4.57807 | 39005 ft | 488 kts | 203° |
| 2026-05-06 22:18 | 48.66464 | -4.61648 | 39002 ft | 487 kts | 203° |
| 2026-05-06 22:18 | 48.60182 | -4.65476 | 39003 ft | 487 kts | 202° |
| 2026-05-06 22:19 | 48.53901 | -4.69294 | 39003 ft | 487 kts | 202° |
| 2026-05-06 22:19 | 48.47622 | -4.73101 | 39003 ft | 488 kts | 202° |
| 2026-05-06 22:20 | 48.41338 | -4.76900 | 39001 ft | 488 kts | 202° |
| 2026-05-06 22:20 | 48.35052 | -4.80690 | 39001 ft | 487 kts | 202° |
| 2026-05-06 22:21 | 48.28764 | -4.84471 | 39003 ft | 487 kts | 202° |
| 2026-05-06 22:21 | 48.22472 | -4.88243 | 39002 ft | 487 kts | 202° |
| 2026-05-06 22:22 | 48.16201 | -4.91994 | 39003 ft | 486 kts | 202° |
| 2026-05-06 22:22 | 48.09939 | -4.95730 | 39008 ft | 486 kts | 202° |
| 2026-05-06 22:23 | 48.03658 | -4.99467 | 38999 ft | 486 kts | 202° |
| 2026-05-06 22:23 | 47.97386 | -5.03189 | 38993 ft | 487 kts | 202° |
| 2026-05-06 22:24 | 47.91082 | -5.06920 | 38992 ft | 488 kts | 202° |
| 2026-05-06 22:24 | 47.84798 | -5.10629 | 38994 ft | 486 kts | 202° |
| 2026-05-06 22:25 | 47.78513 | -5.14330 | 38999 ft | 486 kts | 202° |
| 2026-05-06 22:25 | 47.72247 | -5.18010 | 39002 ft | 486 kts | 202° |
| 2026-05-06 22:26 | 47.65969 | -5.21687 | 39008 ft | 486 kts | 202° |
| 2026-05-06 22:26 | 47.59700 | -5.25349 | 39014 ft | 486 kts | 202° |
| 2026-05-06 22:27 | 47.53421 | -5.29008 | 39021 ft | 486 kts | 202° |
| 2026-05-06 22:27 | 47.47151 | -5.32652 | 39019 ft | 485 kts | 202° |
| 2026-05-06 22:28 | 47.40879 | -5.36288 | 39021 ft | 485 kts | 202° |
| 2026-05-06 22:28 | 47.34608 | -5.39914 | 39017 ft | 485 kts | 202° |
| 2026-05-06 22:29 | 47.28332 | -5.43534 | 39018 ft | 485 kts | 202° |
| 2026-05-06 22:29 | 47.22041 | -5.47153 | 39018 ft | 485 kts | 202° |
| 2026-05-06 22:30 | 47.15761 | -5.50756 | 39018 ft | 484 kts | 202° |
| 2026-05-06 22:30 | 47.09499 | -5.54340 | 39018 ft | 484 kts | 202° |
| 2026-05-06 22:31 | 47.03225 | -5.57921 | 39018 ft | 484 kts | 202° |
| 2026-05-06 22:31 | 46.96962 | -5.61488 | 39015 ft | 484 kts | 202° |
| 2026-05-06 22:32 | 46.90686 | -5.65053 | 39020 ft | 485 kts | 202° |
| 2026-05-06 22:32 | 46.84404 | -5.68613 | 39018 ft | 484 kts | 202° |
| 2026-05-06 22:33 | 46.78142 | -5.72152 | 39019 ft | 483 kts | 202° |
| 2026-05-06 22:33 | 46.71875 | -5.75685 | 39012 ft | 484 kts | 202° |
| 2026-05-06 22:34 | 46.65608 | -5.79209 | 39013 ft | 484 kts | 202° |
| 2026-05-06 22:34 | 46.59386 | -5.82873 | 39009 ft | 484 kts | 204° |
| 2026-05-06 22:35 | 46.53224 | -5.86744 | 39013 ft | 483 kts | 205° |
| 2026-05-06 22:35 | 46.47067 | -5.90679 | 39012 ft | 484 kts | 205° |
| 2026-05-06 22:36 | 46.40904 | -5.94619 | 39005 ft | 484 kts | 205° |
| 2026-05-06 22:36 | 46.34746 | -5.98544 | 39003 ft | 482 kts | 205° |
| 2026-05-06 22:37 | 46.28608 | -6.02445 | 39004 ft | 482 kts | 205° |
| 2026-05-06 22:37 | 46.22457 | -6.06345 | 39006 ft | 484 kts | 205° |
| 2026-05-06 22:38 | 46.16313 | -6.10231 | 39006 ft | 484 kts | 205° |
| 2026-05-06 22:38 | 46.10169 | -6.14106 | 39004 ft | 483 kts | 205° |
| 2026-05-06 22:39 | 46.04021 | -6.17975 | 39006 ft | 483 kts | 205° |
| 2026-05-06 22:39 | 45.97867 | -6.21838 | 39006 ft | 484 kts | 205° |
| 2026-05-06 22:40 | 45.91699 | -6.25701 | 39007 ft | 483 kts | 205° |
| 2026-05-06 22:40 | 45.85549 | -6.29542 | 39006 ft | 483 kts | 205° |
| 2026-05-06 22:41 | 45.76330 | -6.35285 | 39006 ft | 483 kts | 205° |
| 2026-05-06 22:42 | 45.70150 | -6.39122 | 39007 ft | 483 kts | 205° |
| 2026-05-06 22:42 | 45.64000 | -6.42931 | 39006 ft | 482 kts | 205° |
| 2026-05-06 22:43 | 45.57853 | -6.46730 | 39008 ft | 483 kts | 205° |
| 2026-05-06 22:43 | 45.51697 | -6.50526 | 39006 ft | 483 kts | 205° |
| 2026-05-06 22:44 | 45.45536 | -6.54315 | 39006 ft | 483 kts | 205° |
| 2026-05-06 22:44 | 45.39383 | -6.58089 | 39006 ft | 482 kts | 205° |
| 2026-05-06 22:45 | 45.33228 | -6.61857 | 39006 ft | 482 kts | 205° |
| 2026-05-06 22:45 | 45.27075 | -6.65614 | 39004 ft | 483 kts | 204° |
| 2026-05-06 22:46 | 45.20912 | -6.69369 | 39005 ft | 484 kts | 204° |
| 2026-05-06 22:46 | 45.14736 | -6.73123 | 39004 ft | 484 kts | 204° |
| 2026-05-06 22:47 | 45.08567 | -6.76863 | 39007 ft | 482 kts | 204° |
| 2026-05-06 22:47 | 45.02404 | -6.80590 | 39005 ft | 483 kts | 204° |
| 2026-05-06 22:48 | 44.96226 | -6.84319 | 39004 ft | 484 kts | 204° |
| 2026-05-06 22:48 | 44.90046 | -6.88040 | 39003 ft | 482 kts | 204° |
| 2026-05-06 22:49 | 44.83836 | -6.91521 | 38998 ft | 482 kts | 200° |
| 2026-05-06 22:49 | 44.77438 | -6.94402 | 39006 ft | 485 kts | 198° |
| 2026-05-06 22:50 | 44.70966 | -6.97053 | 38999 ft | 486 kts | 197° |
| 2026-05-06 22:50 | 44.64485 | -6.99656 | 38995 ft | 484 kts | 197° |
| 2026-05-06 22:51 | 44.58036 | -7.02242 | 38997 ft | 484 kts | 197° |
| 2026-05-06 22:51 | 44.51578 | -7.04831 | 38997 ft | 484 kts | 197° |
| 2026-05-06 22:52 | 44.45125 | -7.07412 | 38990 ft | 482 kts | 197° |
| 2026-05-06 22:52 | 44.38688 | -7.09981 | 38994 ft | 483 kts | 197° |
| 2026-05-06 22:53 | 44.32225 | -7.12555 | 38991 ft | 484 kts | 197° |
| 2026-05-06 22:53 | 44.25751 | -7.15128 | 38991 ft | 485 kts | 197° |
| 2026-05-06 22:54 | 44.19273 | -7.17696 | 38986 ft | 484 kts | 197° |
| 2026-05-06 22:54 | 44.12804 | -7.20254 | 38986 ft | 484 kts | 197° |
| 2026-05-06 22:55 | 44.06341 | -7.22805 | 38984 ft | 483 kts | 197° |
| 2026-05-06 22:55 | 43.99892 | -7.25344 | 38986 ft | 483 kts | 197° |
| 2026-05-06 22:56 | 43.93420 | -7.27887 | 38985 ft | 483 kts | 197° |
| 2026-05-06 22:56 | 43.86954 | -7.30421 | 38984 ft | 484 kts | 197° |
| 2026-05-06 22:57 | 43.80485 | -7.32951 | 38985 ft | 484 kts | 197° |
| 2026-05-06 22:57 | 43.74011 | -7.35477 | 38985 ft | 484 kts | 197° |
| 2026-05-06 22:58 | 43.67552 | -7.37992 | 38983 ft | 483 kts | 197° |
| 2026-05-06 22:58 | 43.61092 | -7.40501 | 38980 ft | 483 kts | 197° |
| 2026-05-06 22:59 | 43.54622 | -7.43009 | 38978 ft | 483 kts | 197° |
| 2026-05-06 22:59 | 43.48156 | -7.45509 | 38968 ft | 482 kts | 197° |
| 2026-05-06 23:00 | 43.41710 | -7.47997 | 38969 ft | 482 kts | 197° |
| 2026-05-06 23:00 | 43.35253 | -7.50483 | 38967 ft | 483 kts | 198° |
| 2026-05-06 23:01 | 43.28788 | -7.52966 | 38965 ft | 483 kts | 198° |
| 2026-05-06 23:01 | 43.22325 | -7.55444 | 38963 ft | 483 kts | 198° |
| 2026-05-06 23:02 | 43.15863 | -7.57916 | 38956 ft | 483 kts | 197° |
| 2026-05-06 23:02 | 43.09397 | -7.60383 | 38955 ft | 483 kts | 198° |
| 2026-05-06 23:03 | 43.02921 | -7.62849 | 38952 ft | 483 kts | 198° |
| 2026-05-06 23:03 | 42.96456 | -7.65305 | 38951 ft | 482 kts | 197° |
| 2026-05-06 23:04 | 42.89980 | -7.67761 | 38951 ft | 484 kts | 197° |
| 2026-05-06 23:04 | 42.83510 | -7.70208 | 38952 ft | 483 kts | 197° |
| 2026-05-06 23:05 | 42.77038 | -7.72651 | 38952 ft | 481 kts | 197° |
| 2026-05-06 23:05 | 42.70581 | -7.75084 | 38950 ft | 483 kts | 197° |
| 2026-05-06 23:06 | 42.64108 | -7.77517 | 38951 ft | 484 kts | 197° |
| 2026-05-06 23:06 | 42.57627 | -7.79947 | 38954 ft | 483 kts | 197° |
| 2026-05-06 23:07 | 42.51170 | -7.82363 | 38953 ft | 482 kts | 197° |
| 2026-05-06 23:07 | 42.44691 | -7.84783 | 38954 ft | 483 kts | 197° |
| 2026-05-06 23:08 | 42.38215 | -7.87196 | 38957 ft | 483 kts | 197° |
| 2026-05-06 23:08 | 42.31737 | -7.89604 | 38957 ft | 483 kts | 197° |
| 2026-05-06 23:09 | 42.25282 | -7.91999 | 38956 ft | 481 kts | 197° |
| 2026-05-06 23:09 | 42.18816 | -7.94393 | 38958 ft | 482 kts | 197° |
| 2026-05-06 23:10 | 42.12341 | -7.96786 | 38955 ft | 484 kts | 197° |
| 2026-05-06 23:10 | 42.05846 | -7.99181 | 38954 ft | 484 kts | 197° |
| 2026-05-06 23:11 | 41.99370 | -8.01563 | 38953 ft | 482 kts | 197° |
| 2026-05-06 23:11 | 41.92883 | -8.03945 | 38945 ft | 483 kts | 197° |
| 2026-05-06 23:12 | 41.86395 | -8.06322 | 38948 ft | 483 kts | 197° |
| 2026-05-06 23:12 | 41.79915 | -8.08590 | 38947 ft | 482 kts | 196° |
| 2026-05-06 23:13 | 41.73411 | -8.10745 | 38949 ft | 483 kts | 195° |
| 2026-05-06 23:13 | 41.66877 | -8.12870 | 38944 ft | 484 kts | 195° |
| 2026-05-06 23:14 | 41.60336 | -8.14987 | 38941 ft | 484 kts | 195° |
| 2026-05-06 23:14 | 41.53809 | -8.17097 | 38938 ft | 483 kts | 195° |
| 2026-05-06 23:15 | 41.47284 | -8.19202 | 38937 ft | 483 kts | 195° |
| 2026-05-06 23:15 | 41.40764 | -8.21302 | 38934 ft | 482 kts | 195° |
| 2026-05-06 23:16 | 41.34242 | -8.23398 | 38933 ft | 483 kts | 195° |
| 2026-05-06 23:16 | 41.27715 | -8.25491 | 38935 ft | 483 kts | 195° |
| 2026-05-06 23:17 | 41.21169 | -8.27587 | 38929 ft | 484 kts | 195° |
| 2026-05-06 23:17 | 41.14625 | -8.29677 | 38927 ft | 483 kts | 195° |
| 2026-05-06 23:18 | 41.08086 | -8.31761 | 38926 ft | 482 kts | 195° |
| 2026-05-06 23:18 | 41.01560 | -8.33836 | 38922 ft | 483 kts | 195° |
| 2026-05-06 23:19 | 40.95020 | -8.35913 | 38923 ft | 484 kts | 195° |
| 2026-05-06 23:19 | 40.88481 | -8.37984 | 38922 ft | 483 kts | 195° |
| 2026-05-06 23:20 | 40.81942 | -8.40051 | 38923 ft | 482 kts | 196° |
| 2026-05-06 23:20 | 40.75404 | -8.42079 | 38922 ft | 483 kts | 194° |
| 2026-05-06 23:21 | 40.68744 | -8.43570 | 38891 ft | 488 kts | 190° |
| 2026-05-06 23:21 | 40.65348 | -8.44163 | 38528 ft | 499 kts | 189° |
| 2026-05-06 23:21 | 40.61884 | -8.44719 | 38132 ft | 505 kts | 189° |
| 2026-05-06 23:21 | 40.58415 | -8.45251 | 37734 ft | 502 kts | 188° |
| 2026-05-06 23:22 | 40.54968 | -8.45770 | 37341 ft | 495 kts | 188° |
| 2026-05-06 23:22 | 40.51583 | -8.46279 | 36946 ft | 487 kts | 188° |
| 2026-05-06 23:22 | 40.48251 | -8.46781 | 36544 ft | 478 kts | 189° |
| 2026-05-06 23:22 | 40.44972 | -8.47278 | 36137 ft | 471 kts | 188° |
| 2026-05-06 23:23 | 40.41745 | -8.47768 | 35733 ft | 466 kts | 189° |
| 2026-05-06 23:23 | 40.38538 | -8.48255 | 35319 ft | 462 kts | 188° |
| 2026-05-06 23:23 | 40.35361 | -8.48739 | 34878 ft | 460 kts | 189° |
| 2026-05-06 23:23 | 40.32193 | -8.49220 | 34374 ft | 457 kts | 189° |
| 2026-05-06 23:24 | 40.29050 | -8.49697 | 33903 ft | 453 kts | 188° |
| 2026-05-06 23:24 | 40.25940 | -8.50168 | 33471 ft | 449 kts | 188° |
| 2026-05-06 23:24 | 40.22857 | -8.50635 | 32993 ft | 445 kts | 188° |
| 2026-05-06 23:24 | 40.19793 | -8.51099 | 32483 ft | 441 kts | 188° |
| 2026-05-06 23:25 | 40.16767 | -8.51556 | 31960 ft | 437 kts | 188° |
| 2026-05-06 23:25 | 40.13764 | -8.52010 | 31443 ft | 434 kts | 188° |
| 2026-05-06 23:25 | 40.10786 | -8.52459 | 30919 ft | 430 kts | 188° |
| 2026-05-06 23:25 | 40.07823 | -8.52905 | 30342 ft | 427 kts | 188° |
| 2026-05-06 23:26 | 40.04882 | -8.53209 | 29736 ft | 425 kts | 184° |
| 2026-05-06 23:26 | 40.01929 | -8.53255 | 29124 ft | 423 kts | 181° |
| 2026-05-06 23:26 | 39.98996 | -8.53158 | 28518 ft | 420 kts | 180° |
| 2026-05-06 23:26 | 39.96089 | -8.52986 | 27949 ft | 417 kts | 179° |
| 2026-05-06 23:27 | 39.93203 | -8.52778 | 27399 ft | 414 kts | 178° |
| 2026-05-06 23:27 | 39.90339 | -8.52552 | 26860 ft | 410 kts | 178° |
| 2026-05-06 23:27 | 39.87502 | -8.52320 | 26327 ft | 407 kts | 178° |
| 2026-05-06 23:27 | 39.84693 | -8.52088 | 25784 ft | 404 kts | 178° |
| 2026-05-06 23:28 | 39.81900 | -8.51856 | 25248 ft | 401 kts | 178° |
| 2026-05-06 23:28 | 39.79131 | -8.51695 | 24706 ft | 396 kts | 184° |
| 2026-05-06 23:28 | 39.76431 | -8.52237 | 24171 ft | 392 kts | 196° |
| 2026-05-06 23:28 | 39.73879 | -8.53423 | 23629 ft | 388 kts | 204° |
| 2026-05-06 23:29 | 39.71463 | -8.54957 | 23081 ft | 386 kts | 208° |
| 2026-05-06 23:29 | 39.69133 | -8.56655 | 22534 ft | 383 kts | 211° |
| 2026-05-06 23:29 | 39.66852 | -8.58411 | 21991 ft | 381 kts | 211° |
| 2026-05-06 23:29 | 39.64595 | -8.60182 | 21450 ft | 379 kts | 212° |
| 2026-05-06 23:30 | 39.62349 | -8.61953 | 20941 ft | 376 kts | 212° |
| 2026-05-06 23:30 | 39.60137 | -8.63694 | 20547 ft | 370 kts | 212° |
| 2026-05-06 23:30 | 39.57955 | -8.65410 | 20158 ft | 365 kts | 211° |
| 2026-05-06 23:30 | 39.55798 | -8.67104 | 19681 ft | 363 kts | 211° |
| 2026-05-06 23:31 | 39.53651 | -8.68787 | 19195 ft | 360 kts | 211° |
| 2026-05-06 23:31 | 39.51515 | -8.70461 | 18713 ft | 358 kts | 211° |
| 2026-05-06 23:31 | 39.49392 | -8.72123 | 18232 ft | 356 kts | 211° |
| 2026-05-06 23:31 | 39.47279 | -8.73776 | 17756 ft | 355 kts | 211° |
| 2026-05-06 23:32 | 39.45183 | -8.75415 | 17281 ft | 352 kts | 211° |
| 2026-05-06 23:32 | 39.43095 | -8.77046 | 16810 ft | 350 kts | 211° |
| 2026-05-06 23:32 | 39.41072 | -8.78781 | 16335 ft | 348 kts | 217° |
| 2026-05-06 23:32 | 39.39239 | -8.80803 | 15857 ft | 346 kts | 223° |
| 2026-05-06 23:33 | 39.37559 | -8.83005 | 15383 ft | 344 kts | 227° |
| 2026-05-06 23:33 | 39.35955 | -8.85284 | 14912 ft | 342 kts | 228° |
| 2026-05-06 23:33 | 39.34383 | -8.87582 | 14446 ft | 341 kts | 228° |
| 2026-05-06 23:33 | 39.32828 | -8.89868 | 13969 ft | 339 kts | 228° |
| 2026-05-06 23:34 | 39.31280 | -8.92145 | 13490 ft | 337 kts | 228° |
| 2026-05-06 23:34 | 39.29741 | -8.94403 | 13040 ft | 335 kts | 228° |
| 2026-05-06 23:34 | 39.28214 | -8.96642 | 12640 ft | 331 kts | 228° |
| 2026-05-06 23:34 | 39.26703 | -8.98855 | 12236 ft | 328 kts | 228° |
| 2026-05-06 23:35 | 39.25203 | -9.01052 | 11825 ft | 325 kts | 228° |
| 2026-05-06 23:35 | 39.23716 | -9.03225 | 11414 ft | 322 kts | 228° |
| 2026-05-06 23:35 | 39.22240 | -9.05382 | 11016 ft | 319 kts | 228° |
| 2026-05-06 23:35 | 39.20784 | -9.07509 | 10645 ft | 315 kts | 228° |
| 2026-05-06 23:36 | 39.19344 | -9.09611 | 10257 ft | 311 kts | 228° |
| 2026-05-06 23:36 | 39.17923 | -9.11683 | 10013 ft | 304 kts | 228° |
| 2026-05-06 23:36 | 39.16558 | -9.13673 | 9931 ft | 290 kts | 227° |
| 2026-05-06 23:36 | 39.15259 | -9.15564 | 9917 ft | 274 kts | 228° |
| 2026-05-06 23:37 | 39.14030 | -9.17354 | 9925 ft | 260 kts | 227° |
| 2026-05-06 23:37 | 39.12851 | -9.19070 | 9919 ft | 254 kts | 227° |
| 2026-05-06 23:37 | 39.11680 | -9.20772 | 9925 ft | 255 kts | 227° |
| 2026-05-06 23:37 | 39.10504 | -9.22480 | 9925 ft | 255 kts | 227° |
| 2026-05-06 23:38 | 39.09330 | -9.24185 | 9926 ft | 254 kts | 227° |
| 2026-05-06 23:38 | 39.08157 | -9.25888 | 9931 ft | 254 kts | 227° |
| 2026-05-06 23:38 | 39.06986 | -9.27586 | 9929 ft | 254 kts | 228° |
| 2026-05-06 23:38 | 39.05817 | -9.29282 | 9929 ft | 252 kts | 228° |
| 2026-05-06 23:39 | 39.04653 | -9.30969 | 9928 ft | 253 kts | 228° |
| 2026-05-06 23:39 | 39.03484 | -9.32663 | 9938 ft | 253 kts | 228° |
| 2026-05-06 23:39 | 39.02316 | -9.34353 | 9924 ft | 253 kts | 227° |
| 2026-05-06 23:39 | 39.01148 | -9.36042 | 9927 ft | 253 kts | 228° |
| 2026-05-06 23:40 | 38.99980 | -9.37731 | 9928 ft | 253 kts | 228° |
| 2026-05-06 23:40 | 38.98802 | -9.39434 | 9933 ft | 255 kts | 228° |
| 2026-05-06 23:40 | 38.97625 | -9.41135 | 9931 ft | 255 kts | 228° |
| 2026-05-06 23:40 | 38.96439 | -9.42845 | 9932 ft | 258 kts | 229° |
| 2026-05-06 23:41 | 38.95240 | -9.44578 | 9941 ft | 258 kts | 228° |
| 2026-05-06 23:41 | 38.94061 | -9.46279 | 9937 ft | 252 kts | 228° |
| 2026-05-06 23:41 | 38.92889 | -9.47966 | 9931 ft | 253 kts | 228° |
| 2026-05-06 23:41 | 38.91723 | -9.49646 | 9926 ft | 252 kts | 229° |
| 2026-05-06 23:42 | 38.90543 | -9.51345 | 9722 ft | 257 kts | 229° |
| 2026-05-06 23:42 | 38.89328 | -9.53000 | 9465 ft | 253 kts | 219° |
| 2026-05-06 23:42 | 38.87781 | -9.54064 | 9188 ft | 254 kts | 198° |
| 2026-05-06 23:42 | 38.86052 | -9.54558 | 8938 ft | 254 kts | 188° |
| 2026-05-06 23:43 | 38.84297 | -9.54769 | 8706 ft | 252 kts | 184° |
| 2026-05-06 23:43 | 38.82557 | -9.54867 | 8485 ft | 247 kts | 182° |
| 2026-05-06 23:43 | 38.80840 | -9.54925 | 8230 ft | 246 kts | 181° |
| 2026-05-06 23:43 | 38.79125 | -9.54970 | 8021 ft | 244 kts | 181° |
| 2026-05-06 23:44 | 38.77432 | -9.55009 | 7957 ft | 244 kts | 180° |
| 2026-05-06 23:44 | 38.75713 | -9.55047 | 7936 ft | 248 kts | 180° |
| 2026-05-06 23:44 | 38.73954 | -9.55085 | 7939 ft | 253 kts | 180° |
| 2026-05-06 23:44 | 38.72210 | -9.55123 | 7932 ft | 249 kts | 181° |
| 2026-05-06 23:45 | 38.70461 | -9.55161 | 7930 ft | 252 kts | 181° |
| 2026-05-06 23:45 | 38.68699 | -9.55199 | 7936 ft | 253 kts | 181° |
| 2026-05-06 23:45 | 38.66935 | -9.55237 | 7938 ft | 252 kts | 182° |
| 2026-05-06 23:45 | 38.65177 | -9.55276 | 7936 ft | 253 kts | 182° |
| 2026-05-06 23:46 | 38.63419 | -9.55314 | 7937 ft | 251 kts | 182° |
| 2026-05-06 23:46 | 38.61664 | -9.55353 | 7942 ft | 250 kts | 181° |
| 2026-05-06 23:46 | 38.59958 | -9.55282 | 7931 ft | 242 kts | 175° |
| 2026-05-06 23:46 | 38.58250 | -9.55017 | 7932 ft | 251 kts | 171° |
| 2026-05-06 23:47 | 38.56538 | -9.54573 | 7930 ft | 250 kts | 159° |
| 2026-05-06 23:47 | 38.55151 | -9.53309 | 7932 ft | 248 kts | 124° |
| 2026-05-06 23:47 | 38.54533 | -9.51261 | 7740 ft | 252 kts | 94° |
| 2026-05-06 23:47 | 38.54869 | -9.49106 | 7406 ft | 249 kts | 67° |
| 2026-05-06 23:48 | 38.55474 | -9.47071 | 7069 ft | 244 kts | 77° |
| 2026-05-06 23:48 | 38.55794 | -9.44964 | 6726 ft | 241 kts | 83° |
| 2026-05-06 23:48 | 38.55998 | -9.42856 | 6390 ft | 239 kts | 85° |
| 2026-05-06 23:48 | 38.56158 | -9.40754 | 6050 ft | 238 kts | 86° |
| 2026-05-06 23:49 | 38.56300 | -9.38665 | 5714 ft | 236 kts | 86° |
| 2026-05-06 23:49 | 38.56435 | -9.36583 | 5375 ft | 234 kts | 85° |
| 2026-05-06 23:49 | 38.56568 | -9.34515 | 5029 ft | 233 kts | 85° |
| 2026-05-06 23:49 | 38.56779 | -9.32483 | 4686 ft | 231 kts | 77° |
| 2026-05-06 23:50 | 38.57194 | -9.30518 | 4341 ft | 228 kts | 70° |
| 2026-05-06 23:50 | 38.58250 | -9.26849 | 3992 ft | 207 kts | 65° |
| 2026-05-06 23:50 | 38.58875 | -9.25282 | 3971 ft | 191 kts | 59° |
| 2026-05-06 23:51 | 38.59623 | -9.23915 | 3849 ft | 188 kts | 40° |
| 2026-05-06 23:51 | 38.60685 | -9.23012 | 3708 ft | 180 kts | 27° |
| 2026-05-06 23:51 | 38.61819 | -9.22314 | 3514 ft | 180 kts | 22° |
| 2026-05-06 23:51 | 38.62966 | -9.21690 | 3277 ft | 178 kts | 21° |
| 2026-05-06 23:52 | 38.64097 | -9.21088 | 3075 ft | 170 kts | 21° |
| 2026-05-06 23:52 | 38.65149 | -9.20528 | 2845 ft | 159 kts | 20° |
| 2026-05-06 23:52 | 38.66149 | -9.19996 | 2591 ft | 151 kts | 20° |
| 2026-05-06 23:52 | 38.67106 | -9.19486 | 2406 ft | 147 kts | 20° |
| 2026-05-06 23:53 | 38.68020 | -9.18998 | 2234 ft | 137 kts | 19° |
| 2026-05-06 23:53 | 38.68865 | -9.18546 | 2048 ft | 130 kts | 18° |
| 2026-05-06 23:53 | 38.69705 | -9.18099 | 1880 ft | 129 kts | 17° |
| 2026-05-06 23:53 | 38.70532 | -9.17656 | 1695 ft | 128 kts | 20° |
| 2026-05-06 23:54 | 38.71334 | -9.17211 | 1532 ft | 125 kts | 17° |
| 2026-05-06 23:54 | 38.72145 | -9.16778 | 1351 ft | 126 kts | 19° |
| 2026-05-06 23:54 | 38.72961 | -9.16347 | 1203 ft | 128 kts | 19° |
| 2026-05-06 23:54 | 38.73801 | -9.15913 | 1037 ft | 130 kts | 13° |
| 2026-05-06 23:55 | 38.74647 | -9.15461 | 864 ft | 134 kts | 21° |
| 2026-05-06 23:55 | 38.75511 | -9.14996 | 718 ft | 135 kts | 18° |
| 2026-05-06 23:55 | 38.76401 | -9.14527 | 505 ft | 140 kts | 19° |
| 2026-05-06 23:55 | 38.77303 | -9.14033 | 405 ft | 141 kts | 18° |
| 2026-05-06 23:56 | 38.78159 | -9.13581 | 385 ft | 114 kts | 23° |
| 2026-05-06 23:56 | 38.78692 | -9.13293 | 385 ft | 51 kts | 21° |
| 2026-05-06 23:56 | 38.78936 | -9.13161 | 385 ft | 35 kts | 22° |
| 2026-05-06 23:56 | 38.79157 | -9.13043 | 385 ft | 33 kts | 23° |
| 2026-05-06 23:57 | 38.79364 | -9.12931 | 385 ft | 31 kts | 22° |
| 2026-05-06 23:57 | 38.79555 | -9.12829 | 385 ft | 24 kts | 23° |
| 2026-05-06 23:57 | 38.79647 | -9.12779 | 385 ft | 12 kts | 22° |
| 2026-05-06 23:57 | 38.79721 | -9.12782 | 385 ft | 10 kts | 323° |
| 2026-05-06 23:58 | 38.79755 | -9.12855 | 385 ft | 9 kts | 289° |
| 2026-05-06 23:58 | 38.79768 | -9.12931 | 385 ft | 8 kts | 265° |
| 2026-05-06 23:58 | 38.79737 | -9.12979 | 385 ft | 6 kts | 205° |
| 2026-05-06 23:58 | 38.79728 | -9.12984 | 385 ft | 0 kts | 203° |
| 2026-05-06 23:59 | 38.79727 | -9.12985 | 385 ft | 1 kts | 202° |
| 2026-05-07 00:00 | 38.79695 | -9.13001 | 385 ft | 8 kts | 203° |
| 2026-05-07 00:00 | 38.79616 | -9.13044 | 385 ft | 15 kts | 203° |
| 2026-05-07 00:00 | 38.79502 | -9.13105 | 385 ft | 19 kts | 201° |
| 2026-05-07 00:00 | 38.79413 | -9.13150 | 385 ft | 21 kts | 202° |
| 2026-05-07 00:01 | 38.79233 | -9.13251 | 384 ft | 20 kts | 203° |
| 2026-05-07 00:01 | 38.79100 | -9.13321 | 385 ft | 20 kts | 202° |
| 2026-05-07 00:01 | 38.78969 | -9.13391 | 385 ft | 20 kts | 203° |
| 2026-05-07 00:01 | 38.78840 | -9.13461 | 385 ft | 19 kts | 202° |
| 2026-05-07 00:02 | 38.78728 | -9.13521 | 385 ft | 15 kts | 202° |
| 2026-05-07 00:02 | 38.78638 | -9.13563 | 385 ft | 13 kts | 190° |
| 2026-05-07 00:02 | 38.78545 | -9.13557 | 385 ft | 13 kts | 168° |
| 2026-05-07 00:02 | 38.78449 | -9.13530 | 385 ft | 15 kts | 167° |
| 2026-05-07 00:03 | 38.78338 | -9.13500 | 385 ft | 16 kts | 169° |
| 2026-05-07 00:03 | 38.78224 | -9.13469 | 385 ft | 16 kts | 168° |
| 2026-05-07 00:03 | 38.78119 | -9.13440 | 385 ft | 15 kts | 168° |
| 2026-05-07 00:03 | 38.78017 | -9.13412 | 385 ft | 14 kts | 168° |
| 2026-05-07 00:04 | 38.77916 | -9.13385 | 385 ft | 14 kts | 168° |
| 2026-05-07 00:04 | 38.77818 | -9.13360 | 385 ft | 13 kts | 169° |
| 2026-05-07 00:04 | 38.77737 | -9.13334 | 385 ft | 10 kts | 149° |
| 2026-05-07 00:04 | 38.77695 | -9.13264 | 385 ft | 7 kts | 121° |
| 2026-05-07 00:05 | 38.77680 | -9.13232 | 385 ft | 2 kts | 120° |
| 2026-05-07 00:05 | 38.77674 | -9.13219 | 385 ft | 0 kts | 121° |
| 2026-05-07 00:05 | 38.77673 | -9.13216 | 385 ft | 0 kts | 121° |
| 2026-05-07 00:05 | 38.77672 | -9.13214 | 385 ft | 0 kts | 121° |